sensor_id;sensor_type;location;lat;lon;timestamp;pressure;altitude;pressure_sealevel;temperature;humidity
67397;BME280;57728;50.448;18.824;2022-09-21T00:01:35;98262.25;;;8.57;79.02
67397;BME280;57728;50.448;18.824;2022-09-21T00:03:38;98272.47;;;8.55;79.14
67397;BME280;57728;50.448;18.824;2022-09-21T00:05:41;98265.22;;;8.56;79.04
67397;BME280;57728;50.448;18.824;2022-09-21T00:07:43;98268.13;;;8.54;79.03
67397;BME280;57728;50.448;18.824;2022-09-21T00:09:45;98265.16;;;8.51;79.41
67397;BME280;57728;50.448;18.824;2022-09-21T00:11:46;98261.16;;;8.48;79.16
67397;BME280;57728;50.448;18.824;2022-09-21T00:13:51;98261.38;;;8.47;79.42
67397;BME280;57728;50.448;18.824;2022-09-21T00:15:55;98265.94;;;8.46;79.39
67397;BME280;57728;50.448;18.824;2022-09-21T00:17:58;98262.47;;;8.46;79.44
67397;BME280;57728;50.448;18.824;2022-09-21T00:19:59;98254.13;;;8.42;79.69
67397;BME280;57728;50.448;18.824;2022-09-21T00:22:03;98266.22;;;8.45;79.87
67397;BME280;57728;50.448;18.824;2022-09-21T00:24:05;98266.75;;;8.47;79.78
67397;BME280;57728;50.448;18.824;2022-09-21T00:26:13;98265.72;;;8.48;79.84
67397;BME280;57728;50.448;18.824;2022-09-21T00:28:17;98263.56;;;8.50;79.93
67397;BME280;57728;50.448;18.824;2022-09-21T00:30:18;98267.59;;;8.52;79.64
67397;BME280;57728;50.448;18.824;2022-09-21T00:32:19;98254.97;;;8.48;79.70
67397;BME280;57728;50.448;18.824;2022-09-21T00:34:21;98270.28;;;8.52;79.63
67397;BME280;57728;50.448;18.824;2022-09-21T00:36:23;98268.41;;;8.53;79.29
67397;BME280;57728;50.448;18.824;2022-09-21T00:38:25;98271.09;;;8.53;79.76
67397;BME280;57728;50.448;18.824;2022-09-21T00:40:29;98270.81;;;8.54;79.45
67397;BME280;57728;50.448;18.824;2022-09-21T00:42:33;98274.88;;;8.57;79.52
67397;BME280;57728;50.448;18.824;2022-09-21T00:44:35;98264.94;;;8.52;79.17
67397;BME280;57728;50.448;18.824;2022-09-21T00:46:37;98267.84;;;8.51;79.59
67397;BME280;57728;50.448;18.824;2022-09-21T00:48:40;98269.50;;;8.52;79.94
67397;BME280;57728;50.448;18.824;2022-09-21T00:50:48;98272.72;;;8.54;79.65
67397;BME280;57728;50.448;18.824;2022-09-21T00:52:57;98266.53;;;8.53;79.21
67397;BME280;57728;50.448;18.824;2022-09-21T00:55:11;98275.41;;;8.54;79.39
67397;BME280;57728;50.448;18.824;2022-09-21T00:57:21;98277.56;;;8.57;79.43
67397;BME280;57728;50.448;18.824;2022-09-21T00:59:26;98275.41;;;8.54;79.47
67397;BME280;57728;50.448;18.824;2022-09-21T01:01:30;98279.97;;;8.53;79.50
67397;BME280;57728;50.448;18.824;2022-09-21T01:03:31;98286.94;;;8.54;79.74
67397;BME280;57728;50.448;18.824;2022-09-21T01:05:33;98292.59;;;8.53;79.45
67397;BME280;57728;50.448;18.824;2022-09-21T01:07:42;98281.28;;;8.51;79.43
67397;BME280;57728;50.448;18.824;2022-09-21T01:09:51;98275.06;;;8.40;79.31
67397;BME280;57728;50.448;18.824;2022-09-21T01:17:14;98287.13;;;8.37;79.72
67397;BME280;57728;50.448;18.824;2022-09-21T01:25:01;98291.47;;;8.44;79.49
67397;BME280;57728;50.448;18.824;2022-09-21T01:29:42;98289.06;;;8.47;79.50
67397;BME280;57728;50.448;18.824;2022-09-21T01:31:54;98287.13;;;8.43;79.46
67397;BME280;57728;50.448;18.824;2022-09-21T01:34:08;98296.56;;;8.45;79.79
67397;BME280;57728;50.448;18.824;2022-09-21T01:36:21;98293.88;;;8.45;79.36
67397;BME280;57728;50.448;18.824;2022-09-21T01:38:42;98295.50;;;8.46;79.38
67397;BME280;57728;50.448;18.824;2022-09-21T01:40:55;98293.88;;;8.45;79.70
67397;BME280;57728;50.448;18.824;2022-09-21T01:43:02;98291.75;;;8.47;79.51
67397;BME280;57728;50.448;18.824;2022-09-21T01:45:09;98295.25;;;8.48;79.52
67397;BME280;57728;50.448;18.824;2022-09-21T01:47:17;98303.03;;;8.49;79.36
67397;BME280;57728;50.448;18.824;2022-09-21T01:49:38;98294.69;;;8.46;79.33
67397;BME280;57728;50.448;18.824;2022-09-21T01:51:52;98290.66;;;8.43;79.17
67397;BME280;57728;50.448;18.824;2022-09-21T01:54:06;98290.91;;;8.42;79.30
67397;BME280;57728;50.448;18.824;2022-09-21T01:59:09;98295.16;;;8.37;79.22
67397;BME280;57728;50.448;18.824;2022-09-21T02:01:34;98298.13;;;8.36;79.76
67397;BME280;57728;50.448;18.824;2022-09-21T02:03:56;98295.97;;;8.38;79.37
67397;BME280;57728;50.448;18.824;2022-09-21T02:06:03;98298.38;;;8.34;79.54
67397;BME280;57728;50.448;18.824;2022-09-21T02:08:09;98299.44;;;8.33;79.58
67397;BME280;57728;50.448;18.824;2022-09-21T02:10:18;98300.75;;;8.26;79.32
67397;BME280;57728;50.448;18.824;2022-09-21T02:12:23;98303.94;;;8.23;79.54
67397;BME280;57728;50.448;18.824;2022-09-21T02:14:25;98306.88;;;8.21;79.96
67397;BME280;57728;50.448;18.824;2022-09-21T02:21:24;98312.34;;;8.31;79.60
67397;BME280;57728;50.448;18.824;2022-09-21T02:23:43;98313.16;;;8.37;79.82
67397;BME280;57728;50.448;18.824;2022-09-21T02:26:15;98312.88;;;8.38;79.97
67397;BME280;57728;50.448;18.824;2022-09-21T02:31:00;98315.66;;;8.49;79.27
67397;BME280;57728;50.448;18.824;2022-09-21T02:33:30;98315.09;;;8.47;78.88
67397;BME280;57728;50.448;18.824;2022-09-21T02:36:10;98315.84;;;8.37;79.05
67397;BME280;57728;50.448;18.824;2022-09-21T02:40:42;98320.91;;;8.28;79.64
67397;BME280;57728;50.448;18.824;2022-09-21T02:43:08;98321.91;;;8.22;79.48
67397;BME280;57728;50.448;18.824;2022-09-21T02:45:27;98319.41;;;8.10;79.70
67397;BME280;57728;50.448;18.824;2022-09-21T02:49:57;98324.22;;;8.03;80.42
67397;BME280;57728;50.448;18.824;2022-09-21T02:52:11;98324.22;;;8.03;80.23
67397;BME280;57728;50.448;18.824;2022-09-21T02:54:20;98338.97;;;8.06;80.75
67397;BME280;57728;50.448;18.824;2022-09-21T02:56:27;98332.78;;;8.05;80.46
67397;BME280;57728;50.448;18.824;2022-09-21T02:58:34;98332.25;;;8.03;80.48
67397;BME280;57728;50.448;18.824;2022-09-21T03:00:39;98337.06;;;8.01;80.86
67397;BME280;57728;50.448;18.824;2022-09-21T03:02:43;98346.72;;;8.02;81.00
67397;BME280;57728;50.448;18.824;2022-09-21T03:04:47;98344.00;;;7.97;80.82
67397;BME280;57728;50.448;18.824;2022-09-21T03:06:48;98348.56;;;7.97;80.88
67397;BME280;57728;50.448;18.824;2022-09-21T03:08:51;98348.56;;;7.97;81.11
67397;BME280;57728;50.448;18.824;2022-09-21T03:10:53;98341.00;;;7.94;81.42
67397;BME280;57728;50.448;18.824;2022-09-21T03:12:56;98347.78;;;8.01;80.91
67397;BME280;57728;50.448;18.824;2022-09-21T03:14:59;98352.09;;;8.02;81.17
67397;BME280;57728;50.448;18.824;2022-09-21T03:17:01;98343.22;;;8.02;81.00
67397;BME280;57728;50.448;18.824;2022-09-21T03:19:03;98343.75;;;7.99;80.96
67397;BME280;57728;50.448;18.824;2022-09-21T03:21:06;98352.91;;;8.03;80.80
67397;BME280;57728;50.448;18.824;2022-09-21T03:23:07;98345.91;;;8.02;80.74
67397;BME280;57728;50.448;18.824;2022-09-21T03:25:08;98354.22;;;8.00;81.12
67397;BME280;57728;50.448;18.824;2022-09-21T03:27:16;98355.84;;;8.01;81.01
67397;BME280;57728;50.448;18.824;2022-09-21T03:29:19;98345.06;;;7.96;81.02
67397;BME280;57728;50.448;18.824;2022-09-21T03:31:20;98347.50;;;7.98;81.06
67397;BME280;57728;50.448;18.824;2022-09-21T03:33:22;98352.66;;;8.04;81.11
67397;BME280;57728;50.448;18.824;2022-09-21T03:35:25;98351.56;;;8.05;81.17
67397;BME280;57728;50.448;18.824;2022-09-21T03:37:26;98355.94;;;8.11;81.07
67397;BME280;57728;50.448;18.824;2022-09-21T03:39:28;98354.06;;;8.12;80.71
67397;BME280;57728;50.448;18.824;2022-09-21T03:41:29;98361.84;;;8.13;80.64
67397;BME280;57728;50.448;18.824;2022-09-21T03:43:31;98361.34;;;8.17;80.64
67397;BME280;57728;50.448;18.824;2022-09-21T03:45:33;98359.72;;;8.16;80.58
67397;BME280;57728;50.448;18.824;2022-09-21T03:47:34;98361.84;;;8.13;80.73
67397;BME280;57728;50.448;18.824;2022-09-21T03:49:36;98359.94;;;8.09;80.48
67397;BME280;57728;50.448;18.824;2022-09-21T03:51:39;98364.50;;;8.08;80.98
67397;BME280;57728;50.448;18.824;2022-09-21T03:53:40;98373.06;;;8.10;80.86
67397;BME280;57728;50.448;18.824;2022-09-21T03:55:41;98370.66;;;8.09;80.90
67397;BME280;57728;50.448;18.824;2022-09-21T03:57:44;98370.41;;;8.10;80.91
67397;BME280;57728;50.448;18.824;2022-09-21T03:59:45;98372.28;;;8.10;80.96
67397;BME280;57728;50.448;18.824;2022-09-21T04:01:46;98375.53;;;8.12;80.81
67397;BME280;57728;50.448;18.824;2022-09-21T04:03:48;98370.16;;;8.12;81.10
67397;BME280;57728;50.448;18.824;2022-09-21T04:05:49;98372.03;;;8.11;81.22
67397;BME280;57728;50.448;18.824;2022-09-21T04:07:50;98364.19;;;8.05;80.72
67397;BME280;57728;50.448;18.824;2022-09-21T04:09:52;98369.56;;;8.05;81.04
67397;BME280;57728;50.448;18.824;2022-09-21T04:11:53;98369.06;;;8.08;80.95
67397;BME280;57728;50.448;18.824;2022-09-21T04:13:54;98370.16;;;8.12;81.28
67397;BME280;57728;50.448;18.824;2022-09-21T04:15:57;98376.34;;;8.12;81.08
67397;BME280;57728;50.448;18.824;2022-09-21T04:17:58;98373.06;;;8.10;81.20
67397;BME280;57728;50.448;18.824;2022-09-21T04:20:00;98371.75;;;8.08;80.96
67397;BME280;57728;50.448;18.824;2022-09-21T04:22:02;98373.03;;;8.05;81.27
67397;BME280;57728;50.448;18.824;2022-09-21T04:24:04;98374.38;;;8.03;81.29
67397;BME280;57728;50.448;18.824;2022-09-21T04:26:06;98380.00;;;8.01;81.40
67397;BME280;57728;50.448;18.824;2022-09-21T04:28:07;98367.06;;;7.98;81.75
67397;BME280;57728;50.448;18.824;2022-09-21T04:30:11;98376.75;;;7.99;81.59
67397;BME280;57728;50.448;18.824;2022-09-21T04:32:13;98381.31;;;7.99;81.69
67397;BME280;57728;50.448;18.824;2022-09-21T04:34:15;98384.56;;;8.01;81.63
67397;BME280;57728;50.448;18.824;2022-09-21T04:36:21;98381.88;;;8.01;81.83
67397;BME280;57728;50.448;18.824;2022-09-21T04:38:23;98381.81;;;7.96;81.83
67397;BME280;57728;50.448;18.824;2022-09-21T04:40:25;98388.22;;;7.95;81.97
67397;BME280;57728;50.448;18.824;2022-09-21T04:42:27;98384.72;;;7.89;81.98
67397;BME280;57728;50.448;18.824;2022-09-21T04:44:29;98388.75;;;7.92;81.89
67397;BME280;57728;50.448;18.824;2022-09-21T04:46:31;98399.19;;;7.88;81.87
67397;BME280;57728;50.448;18.824;2022-09-21T04:48:33;98395.13;;;7.85;82.04
67397;BME280;57728;50.448;18.824;2022-09-21T04:50:36;98398.31;;;7.82;82.31
67397;BME280;57728;50.448;18.824;2022-09-21T04:52:38;98401.00;;;7.82;82.54
67397;BME280;57728;50.448;18.824;2022-09-21T04:54:40;98388.13;;;7.79;82.27
67397;BME280;57728;50.448;18.824;2022-09-21T04:56:41;98384.31;;;7.75;82.28
67397;BME280;57728;50.448;18.824;2022-09-21T04:58:43;98396.91;;;7.75;82.97
67397;BME280;57728;50.448;18.824;2022-09-21T05:00:48;98390.22;;;7.77;82.99
67397;BME280;57728;50.448;18.824;2022-09-21T05:02:51;98391.84;;;7.78;83.20
67397;BME280;57728;50.448;18.824;2022-09-21T05:04:53;98391.34;;;7.81;82.91
67397;BME280;57728;50.448;18.824;2022-09-21T05:06:54;98383.56;;;7.80;82.65
67397;BME280;57728;50.448;18.824;2022-09-21T05:08:57;98385.97;;;7.81;82.66
67397;BME280;57728;50.448;18.824;2022-09-21T05:11:18;98401.06;;;7.87;82.78
67397;BME280;57728;50.448;18.824;2022-09-21T05:13:19;98395.63;;;7.82;82.42
67397;BME280;57728;50.448;18.824;2022-09-21T05:15:20;98397.28;;;7.83;82.76
67397;BME280;57728;50.448;18.824;2022-09-21T05:17:23;98408.81;;;7.84;82.60
67397;BME280;57728;50.448;18.824;2022-09-21T05:19:24;98403.19;;;7.85;82.98
67397;BME280;57728;50.448;18.824;2022-09-21T05:21:25;98404.06;;;7.91;82.99
67397;BME280;57728;50.448;18.824;2022-09-21T05:23:29;98409.44;;;7.91;82.69
67397;BME280;57728;50.448;18.824;2022-09-21T05:25:31;98404.59;;;7.93;82.89
67397;BME280;57728;50.448;18.824;2022-09-21T05:27:32;98408.91;;;7.94;82.64
67397;BME280;57728;50.448;18.824;2022-09-21T05:29:34;98413.53;;;7.99;82.90
67397;BME280;57728;50.448;18.824;2022-09-21T05:31:47;98418.34;;;8.02;82.65
67397;BME280;57728;50.448;18.824;2022-09-21T05:34:03;98413.25;;;8.00;82.39
67397;BME280;57728;50.448;18.824;2022-09-21T05:36:47;98407.91;;;8.00;82.66
67397;BME280;57728;50.448;18.824;2022-09-21T05:38:59;98410.88;;;8.04;82.99
67397;BME280;57728;50.448;18.824;2022-09-21T05:41:00;98414.38;;;8.04;82.32
67397;BME280;57728;50.448;18.824;2022-09-21T05:43:02;98417.06;;;8.04;82.44
67397;BME280;57728;50.448;18.824;2022-09-21T05:45:04;98412.75;;;8.03;82.76
67397;BME280;57728;50.448;18.824;2022-09-21T05:47:23;98413.09;;;8.12;82.51
67397;BME280;57728;50.448;18.824;2022-09-21T05:49:52;98417.97;;;8.15;82.14
67397;BME280;57728;50.448;18.824;2022-09-21T05:55:04;98431.19;;;8.27;82.81
67397;BME280;57728;50.448;18.824;2022-09-21T05:57:17;98435.25;;;8.29;82.40
67397;BME280;57728;50.448;18.824;2022-09-21T06:01:57;98434.91;;;8.21;82.14
67397;BME280;57728;50.448;18.824;2022-09-21T06:04:10;98431.97;;;8.22;82.21
67397;BME280;57728;50.448;18.824;2022-09-21T06:06:12;98429.06;;;8.29;82.26
67397;BME280;57728;50.448;18.824;2022-09-21T06:08:14;98435.84;;;8.36;82.34
67397;BME280;57728;50.448;18.824;2022-09-21T06:10:16;98428.13;;;8.45;81.86
67397;BME280;57728;50.448;18.824;2022-09-21T06:12:17;98433.81;;;8.49;81.72
67397;BME280;57728;50.448;18.824;2022-09-21T06:14:19;98431.41;;;8.52;81.75
67397;BME280;57728;50.448;18.824;2022-09-21T06:16:25;98434.66;;;8.54;81.49
67397;BME280;57728;50.448;18.824;2022-09-21T06:18:26;98429.06;;;8.61;81.26
67397;BME280;57728;50.448;18.824;2022-09-21T06:20:28;98427.69;;;8.58;80.79
67397;BME280;57728;50.448;18.824;2022-09-21T06:22:29;98428.47;;;8.54;81.22
67397;BME280;57728;50.448;18.824;2022-09-21T06:24:30;98426.81;;;8.48;80.76
67397;BME280;57728;50.448;18.824;2022-09-21T06:26:32;98433.50;;;8.45;81.35
67397;BME280;57728;50.448;18.824;2022-09-21T06:28:33;98434.00;;;8.42;81.63
67397;BME280;57728;50.448;18.824;2022-09-21T06:30:35;98437.25;;;8.44;81.79
67397;BME280;57728;50.448;18.824;2022-09-21T06:32:38;98440.75;;;8.45;81.73
67397;BME280;57728;50.448;18.824;2022-09-21T06:34:39;98437.56;;;8.48;81.79
67397;BME280;57728;50.448;18.824;2022-09-21T06:36:40;98438.91;;;8.50;81.50
67397;BME280;57728;50.448;18.824;2022-09-21T06:38:42;98434.91;;;8.53;81.44
67397;BME280;57728;50.448;18.824;2022-09-21T06:40:43;98440.28;;;8.53;80.92
67397;BME280;57728;50.448;18.824;2022-09-21T06:42:44;98434.06;;;8.47;81.22
67397;BME280;57728;50.448;18.824;2022-09-21T06:44:46;98441.91;;;8.54;81.62
67397;BME280;57728;50.448;18.824;2022-09-21T06:46:47;98446.47;;;8.53;81.74
67397;BME280;57728;50.448;18.824;2022-09-21T06:48:48;98444.38;;;8.60;81.80
67397;BME280;57728;50.448;18.824;2022-09-21T06:50:58;98445.78;;;8.68;81.27
67397;BME280;57728;50.448;18.824;2022-09-21T06:53:02;98450.09;;;8.74;81.20
67397;BME280;57728;50.448;18.824;2022-09-21T06:55:03;98447.50;;;8.79;80.78
67397;BME280;57728;50.448;18.824;2022-09-21T06:57:06;98455.03;;;8.82;80.50
67397;BME280;57728;50.448;18.824;2022-09-21T06:59:07;98451.81;;;8.85;81.33
67397;BME280;57728;50.448;18.824;2022-09-21T07:01:13;98459.69;;;8.97;81.11
67397;BME280;57728;50.448;18.824;2022-09-21T07:03:16;98459.72;;;9.02;80.27
67397;BME280;57728;50.448;18.824;2022-09-21T07:05:18;98458.09;;;9.01;79.89
67397;BME280;57728;50.448;18.824;2022-09-21T07:07:19;98461.84;;;8.95;79.97
67397;BME280;57728;50.448;18.824;2022-09-21T07:09:21;98466.66;;;8.93;79.98
67397;BME280;57728;50.448;18.824;2022-09-21T07:11:22;98460.47;;;8.87;80.45
67397;BME280;57728;50.448;18.824;2022-09-21T07:13:24;98471.75;;;8.90;80.60
67397;BME280;57728;50.448;18.824;2022-09-21T07:15:27;98472.31;;;8.92;80.32
67397;BME280;57728;50.448;18.824;2022-09-21T07:17:34;98465.53;;;8.84;80.02
67397;BME280;57728;50.448;18.824;2022-09-21T07:19:36;98467.66;;;8.82;80.42
67397;BME280;57728;50.448;18.824;2022-09-21T07:21:38;98464.44;;;8.80;80.90
67397;BME280;57728;50.448;18.824;2022-09-21T07:23:39;98468.75;;;8.86;80.80
67397;BME280;57728;50.448;18.824;2022-09-21T07:25:46;98475.75;;;8.87;80.25
67397;BME280;57728;50.448;18.824;2022-09-21T07:27:53;98474.63;;;8.83;80.41
67397;BME280;57728;50.448;18.824;2022-09-21T07:29:54;98481.09;;;8.82;80.66
67397;BME280;57728;50.448;18.824;2022-09-21T07:31:55;98480.56;;;8.85;80.81
67397;BME280;57728;50.448;18.824;2022-09-21T07:33:57;98480.06;;;8.88;80.82
67397;BME280;57728;50.448;18.824;2022-09-21T07:35:59;98481.97;;;8.93;80.72
67397;BME280;57728;50.448;18.824;2022-09-21T07:38:03;98487.59;;;8.91;80.37
67397;BME280;57728;50.448;18.824;2022-09-21T07:40:07;98486.84;;;8.96;80.67
67397;BME280;57728;50.448;18.824;2022-09-21T07:42:08;98487.38;;;8.98;80.63
67397;BME280;57728;50.448;18.824;2022-09-21T07:44:09;98487.13;;;8.99;80.63
67397;BME280;57728;50.448;18.824;2022-09-21T07:46:14;98479.63;;;9.06;80.93
67397;BME280;57728;50.448;18.824;2022-09-21T07:48:15;98492.28;;;9.11;80.47
67397;BME280;57728;50.448;18.824;2022-09-21T07:50:16;98486.91;;;9.06;79.95
67397;BME280;57728;50.448;18.824;2022-09-21T07:52:18;98493.38;;;9.10;80.25
67397;BME280;57728;50.448;18.824;2022-09-21T07:54:19;98493.88;;;9.07;80.47
67397;BME280;57728;50.448;18.824;2022-09-21T07:56:21;98499.00;;;9.03;80.54
67397;BME280;57728;50.448;18.824;2022-09-21T07:58:23;98498.44;;;9.06;80.43
67397;BME280;57728;50.448;18.824;2022-09-21T08:00:43;98502.50;;;9.09;80.79
67397;BME280;57728;50.448;18.824;2022-09-21T08:02:44;98497.94;;;9.09;80.64
67397;BME280;57728;50.448;18.824;2022-09-21T08:04:46;98492.56;;;9.09;80.46
67397;BME280;57728;50.448;18.824;2022-09-21T08:06:47;98505.97;;;9.04;80.21
67397;BME280;57728;50.448;18.824;2022-09-21T08:08:48;98512.13;;;9.00;80.20
67397;BME280;57728;50.448;18.824;2022-09-21T08:10:50;98495.44;;;8.98;80.66
67397;BME280;57728;50.448;18.824;2022-09-21T08:12:53;98507.31;;;9.07;80.65
67397;BME280;57728;50.448;18.824;2022-09-21T08:14:55;98504.94;;;9.10;80.42
67397;BME280;57728;50.448;18.824;2022-09-21T08:16:57;98509.50;;;9.10;80.38
67397;BME280;57728;50.448;18.824;2022-09-21T08:18:58;98507.09;;;9.08;80.49
67397;BME280;57728;50.448;18.824;2022-09-21T08:20:59;98508.41;;;9.06;80.21
67397;BME280;57728;50.448;18.824;2022-09-21T08:23:01;98514.06;;;9.09;80.32
67397;BME280;57728;50.448;18.824;2022-09-21T08:25:02;98508.69;;;9.09;79.80
67397;BME280;57728;50.448;18.824;2022-09-21T08:27:04;98504.41;;;9.13;80.27
67397;BME280;57728;50.448;18.824;2022-09-21T08:29:06;98503.66;;;9.23;79.96
67397;BME280;57728;50.448;18.824;2022-09-21T08:31:08;98498.63;;;9.32;80.04
67397;BME280;57728;50.448;18.824;2022-09-21T08:33:10;98500.00;;;9.40;79.63
67397;BME280;57728;50.448;18.824;2022-09-21T08:35:12;98498.44;;;9.49;79.52
67397;BME280;57728;50.448;18.824;2022-09-21T08:37:13;98503.84;;;9.59;79.32
67397;BME280;57728;50.448;18.824;2022-09-21T08:39:15;98504.69;;;9.65;79.14
67397;BME280;57728;50.448;18.824;2022-09-21T08:43:57;98511.72;;;9.71;78.29
67397;BME280;57728;50.448;18.824;2022-09-21T08:46:17;98513.38;;;9.77;78.29
67397;BME280;57728;50.448;18.824;2022-09-21T08:48:28;98515.25;;;9.81;78.45
67397;BME280;57728;50.448;18.824;2022-09-21T08:52:51;98523.88;;;9.83;78.46
67397;BME280;57728;50.448;18.824;2022-09-21T08:55:18;98512.84;;;9.85;78.91
67397;BME280;57728;50.448;18.824;2022-09-21T08:57:27;98510.16;;;9.85;78.73
67397;BME280;57728;50.448;18.824;2022-09-21T08:59:30;98511.78;;;9.86;78.36
67397;BME280;57728;50.448;18.824;2022-09-21T09:01:51;98518.25;;;9.90;77.97
67397;BME280;57728;50.448;18.824;2022-09-21T09:11:20;98508.19;;;10.53;78.05
67397;BME280;57728;50.448;18.824;2022-09-21T09:16:24;98507.66;;;10.82;77.22
67397;BME280;57728;50.448;18.824;2022-09-21T09:25:50;98507.41;;;10.89;75.25
67397;BME280;57728;50.448;18.824;2022-09-21T09:28:12;98520.59;;;10.90;74.90
67397;BME280;57728;50.448;18.824;2022-09-21T09:30:27;98517.91;;;10.85;74.63
67397;BME280;57728;50.448;18.824;2022-09-21T09:35:34;98519.25;;;10.82;75.52
67397;BME280;57728;50.448;18.824;2022-09-21T09:37:41;98513.88;;;10.72;75.08
67397;BME280;57728;50.448;18.824;2022-09-21T09:39:52;98520.84;;;10.63;74.77
67397;BME280;57728;50.448;18.824;2022-09-21T09:46:25;98527.06;;;10.53;76.03
67397;BME280;57728;50.448;18.824;2022-09-21T09:51:00;98520.31;;;10.92;75.43
67397;BME280;57728;50.448;18.824;2022-09-21T09:55:37;98507.59;;;11.33;73.93
67397;BME280;57728;50.448;18.824;2022-09-21T09:57:40;98506.47;;;11.44;73.33
67397;BME280;57728;50.448;18.824;2022-09-21T09:59:46;98505.66;;;11.44;72.88
67397;BME280;57728;50.448;18.824;2022-09-21T10:02:19;98509.72;;;11.56;72.67
67397;BME280;57728;50.448;18.824;2022-09-21T10:04:21;98513.13;;;11.72;71.96
67397;BME280;57728;50.448;18.824;2022-09-21T10:06:32;98514.50;;;11.85;70.85
67397;BME280;57728;50.448;18.824;2022-09-21T10:10:42;98520.41;;;11.87;71.53
67397;BME280;57728;50.448;18.824;2022-09-21T10:12:46;98519.06;;;11.84;70.94
67397;BME280;57728;50.448;18.824;2022-09-21T10:14:51;98519.88;;;11.85;71.71
67397;BME280;57728;50.448;18.824;2022-09-21T10:17:03;98507.72;;;11.72;71.13
67397;BME280;57728;50.448;18.824;2022-09-21T10:19:17;98501.81;;;11.70;70.89
67397;BME280;57728;50.448;18.824;2022-09-21T10:23:33;98521.78;;;11.64;71.85
67397;BME280;57728;50.448;18.824;2022-09-21T10:25:36;98511.56;;;11.61;71.65
67397;BME280;57728;50.448;18.824;2022-09-21T10:27:43;98513.44;;;11.66;71.42
67397;BME280;57728;50.448;18.824;2022-09-21T10:29:49;98506.06;;;11.92;71.07
67397;BME280;57728;50.448;18.824;2022-09-21T10:36:03;98510.94;;;12.39;68.28
67397;BME280;57728;50.448;18.824;2022-09-21T10:38:16;98508.78;;;12.41;69.27
67397;BME280;57728;50.448;18.824;2022-09-21T10:40:28;98508.41;;;12.53;68.40
67397;BME280;57728;50.448;18.824;2022-09-21T10:42:36;98476.56;;;12.45;68.20
67397;BME280;57728;50.448;18.824;2022-09-21T10:44:49;98507.94;;;12.80;69.04
67397;BME280;57728;50.448;18.824;2022-09-21T10:49:25;98493.00;;;13.22;66.20
67397;BME280;57728;50.448;18.824;2022-09-21T10:51:30;98501.97;;;13.41;65.78
67397;BME280;57728;50.448;18.824;2022-09-21T10:53:35;98503.22;;;13.54;66.61
67397;BME280;57728;50.448;18.824;2022-09-21T10:55:43;98491.56;;;13.53;64.72
67397;BME280;57728;50.448;18.824;2022-09-21T10:57:52;98501.94;;;13.46;65.49
67397;BME280;57728;50.448;18.824;2022-09-21T10:59:54;98502.59;;;13.33;65.17
67397;BME280;57728;50.448;18.824;2022-09-21T11:01:58;98505.09;;;13.29;65.87
67397;BME280;57728;50.448;18.824;2022-09-21T11:04:06;98496.50;;;13.22;65.65
67397;BME280;57728;50.448;18.824;2022-09-21T11:08:33;98490.47;;;13.78;63.15
67397;BME280;57728;50.448;18.824;2022-09-21T11:10:45;98488.91;;;14.53;61.54
67397;BME280;57728;50.448;18.824;2022-09-21T11:16:17;98490.78;;;15.04;58.99
67397;BME280;57728;50.448;18.824;2022-09-21T11:26:34;98487.94;;;13.63;61.02
67397;BME280;57728;50.448;18.824;2022-09-21T11:29:11;98495.00;;;13.35;61.92
67397;BME280;57728;50.448;18.824;2022-09-21T11:34:04;98495.09;;;12.96;63.62
67397;BME280;57728;50.448;18.824;2022-09-21T11:44:17;98479.66;;;13.54;64.10
67397;BME280;57728;50.448;18.824;2022-09-21T11:51:54;98474.72;;;14.23;59.19
67397;BME280;57728;50.448;18.824;2022-09-21T11:57:51;98476.69;;;13.75;61.09
67397;BME280;57728;50.448;18.824;2022-09-21T12:00:11;98469.28;;;13.62;60.22
67397;BME280;57728;50.448;18.824;2022-09-21T12:05:23;98464.03;;;13.46;61.69
67397;BME280;57728;50.448;18.824;2022-09-21T12:12:37;98474.78;;;13.27;61.74
67397;BME280;57728;50.448;18.824;2022-09-21T12:22:21;98455.66;;;14.47;60.69
67397;BME280;57728;50.448;18.824;2022-09-21T12:24:43;98463.63;;;16.28;58.96
67397;BME280;57728;50.448;18.824;2022-09-21T12:26:54;98449.47;;;16.85;53.30
67397;BME280;57728;50.448;18.824;2022-09-21T12:29:05;98455.03;;;16.80;51.62
67397;BME280;57728;50.448;18.824;2022-09-21T12:35:42;98446.59;;;18.27;48.24
67397;BME280;57728;50.448;18.824;2022-09-21T12:37:55;98439.38;;;18.13;47.76
67397;BME280;57728;50.448;18.824;2022-09-21T12:40:11;98448.16;;;17.93;47.71
67397;BME280;57728;50.448;18.824;2022-09-21T12:45:18;98442.16;;;16.94;48.07
67397;BME280;57728;50.448;18.824;2022-09-21T12:47:54;98437.09;;;16.34;48.77
67397;BME280;57728;50.448;18.824;2022-09-21T12:50:05;98441.44;;;15.85;49.86
67397;BME280;57728;50.448;18.824;2022-09-21T12:52:22;98428.13;;;15.47;50.00
67397;BME280;57728;50.448;18.824;2022-09-21T12:54:31;98433.13;;;15.26;50.32
67397;BME280;57728;50.448;18.824;2022-09-21T13:08:40;98426.75;;;15.03;52.70
67397;BME280;57728;50.448;18.824;2022-09-21T13:13:17;98434.66;;;14.53;54.89
67397;BME280;57728;50.448;18.824;2022-09-21T13:15:26;98430.31;;;14.19;54.13
67397;BME280;57728;50.448;18.824;2022-09-21T13:17:32;98433.66;;;13.92;55.04
67397;BME280;57728;50.448;18.824;2022-09-21T13:19:34;98433.72;;;13.68;53.97
67397;BME280;57728;50.448;18.824;2022-09-21T13:21:35;98427.09;;;13.55;55.33
67397;BME280;57728;50.448;18.824;2022-09-21T13:23:38;98431.56;;;13.46;55.64
67397;BME280;57728;50.448;18.824;2022-09-21T13:25:47;98434.53;;;13.45;57.29
67397;BME280;57728;50.448;18.824;2022-09-21T13:30:27;98425.00;;;13.71;56.61
67397;BME280;57728;50.448;18.824;2022-09-21T13:32:50;98432.41;;;13.85;57.12
67397;BME280;57728;50.448;18.824;2022-09-21T13:34:51;98431.84;;;13.88;56.71
67397;BME280;57728;50.448;18.824;2022-09-21T13:39:17;98428.56;;;14.28;55.79
67397;BME280;57728;50.448;18.824;2022-09-21T13:43:23;98432.59;;;14.31;56.18
67397;BME280;57728;50.448;18.824;2022-09-21T13:45:54;98424.38;;;15.15;54.06